Time;durP1;ratioP1;P1;durP2;ratioP2;P2;SDS_P1;SDS_P2;PMS_P1;PMS_P2;Temp;Humidity;BMP_temperature;BMP_pressure;BME280_temperature;BME280_humidity;BME280_pressure;Samples;Min_cycle;Max_cycle;Signal;HPM_P1;HPM_P2
2022/10/27 00:01:16;;;;;;;10.10;3.17;;;13.70;99.90;;;;;;4233693;28;20054;-85
2022/10/27 00:03:17;;;;;;;13.50;3.50;;;13.70;99.90;;;;;;4215728;28;20082;-85
2022/10/27 00:05:21;;;;;;;14.18;3.50;;;13.70;99.90;;;;;;4233520;28;20043;-85
2022/10/27 00:07:21;;;;;;;6.75;3.13;;;13.60;99.90;;;;;;4233315;28;20122;-85
2022/10/27 00:09:22;;;;;;;14.25;3.90;;;13.60;99.90;;;;;;4234314;28;20040;-85
2022/10/27 00:11:23;;;;;;;9.05;2.88;;;13.60;99.90;;;;;;4248751;27;20035;-85
2022/10/27 00:13:24;;;;;;;11.00;2.88;;;13.60;99.90;;;;;;4233391;28;20051;-85
2022/10/27 00:15:24;;;;;;;15.40;3.30;;;13.50;99.90;;;;;;4232003;28;20562;-85
2022/10/27 00:17:27;;;;;;;10.35;2.88;;;13.50;99.90;;;;;;4231916;28;20122;-85
2022/10/27 00:19:28;;;;;;;10.88;3.60;;;13.50;99.90;;;;;;4232053;28;20053;-85
2022/10/27 00:21:29;;;;;;;8.93;2.42;;;13.50;99.90;;;;;;4232136;28;20044;-85
2022/10/27 00:23:30;;;;;;;8.65;2.58;;;13.40;99.90;;;;;;4214871;28;20048;-85
2022/10/27 00:25:31;;;;;;;7.07;2.70;;;13.40;99.90;;;;;;4223784;28;20073;-84
2022/10/27 00:27:33;;;;;;;8.70;2.85;;;13.40;99.90;;;;;;4232039;28;20085;-85
2022/10/27 00:29:34;;;;;;;8.10;2.45;;;13.50;99.90;;;;;;4231521;28;20039;-85
2022/10/27 00:31:35;;;;;;;6.68;2.70;;;13.40;99.90;;;;;;4231580;28;20150;-85
2022/10/27 00:33:36;;;;;;;14.75;2.88;;;13.40;99.90;;;;;;4213589;28;20127;-85
2022/10/27 00:35:37;;;;;;;10.30;3.17;;;13.40;99.90;;;;;;4198229;28;20048;-85
2022/10/27 00:37:38;;;;;;;9.43;2.85;;;13.40;99.90;;;;;;4207907;28;20182;-85
2022/10/27 00:39:38;;;;;;;13.52;2.63;;;13.40;99.90;;;;;;4216046;28;20162;-85
2022/10/27 00:41:41;;;;;;;11.68;3.30;;;13.40;99.90;;;;;;4232152;28;20055;-85
2022/10/27 00:43:42;;;;;;;6.22;2.70;;;13.40;99.90;;;;;;4233677;28;20123;-85
2022/10/27 00:45:42;;;;;;;7.38;2.67;;;13.40;99.90;;;;;;4231893;28;20039;-85
2022/10/27 00:47:44;;;;;;;5.30;3.05;;;13.40;99.90;;;;;;4232648;28;20430;-85
2022/10/27 00:49:56;;;;;;;13.27;3.60;;;13.40;99.90;;;;;;4214108;28;20101;-86
2022/10/27 00:52:01;;;;;;;7.95;2.40;;;13.30;99.90;;;;;;4233203;28;20040;-85
2022/10/27 00:54:02;;;;;;;14.43;2.78;;;13.30;99.90;;;;;;4248627;27;20086;-85
2022/10/27 00:56:03;;;;;;;7.60;3.38;;;13.40;99.90;;;;;;4232020;28;20076;-85
2022/10/27 00:58:08;;;;;;;9.85;3.17;;;13.40;99.90;;;;;;4231482;28;20454;-85
2022/10/27 01:00:10;;;;;;;9.18;2.75;;;13.40;99.90;;;;;;4231176;28;20043;-86
2022/10/27 01:02:11;;;;;;;11.88;2.72;;;13.40;99.90;;;;;;4231424;28;20062;-85
2022/10/27 01:04:14;;;;;;;12.55;3.30;;;13.40;99.90;;;;;;4232203;28;20036;-86
2022/10/27 01:06:15;;;;;;;10.88;3.47;;;13.50;99.90;;;;;;4231441;28;20062;-86
2022/10/27 01:08:16;;;;;;;7.40;3.03;;;13.50;99.90;;;;;;4231327;28;20122;-86
2022/10/27 01:10:18;;;;;;;8.82;3.05;;;13.50;99.90;;;;;;4207442;28;20195;-85
2022/10/27 01:12:19;;;;;;;12.55;3.45;;;13.50;99.90;;;;;;4215407;28;20082;-86
2022/10/27 01:14:20;;;;;;;10.77;3.63;;;13.50;99.90;;;;;;4214195;28;20055;-85
2022/10/27 01:16:32;;;;;;;11.27;3.28;;;13.50;99.90;;;;;;4231463;28;20094;-85
2022/10/27 01:18:52;;;;;;;7.85;2.92;;;13.50;99.90;;;;;;4231241;28;20046;-86
2022/10/27 01:21:30;;;;;;;11.32;3.25;;;13.60;99.90;;;;;;4197784;28;20060;-85
2022/10/27 01:23:35;;;;;;;10.03;3.37;;;13.60;99.90;;;;;;4216193;28;20486;-85
2022/10/27 01:26:05;;;;;;;12.02;3.30;;;13.60;99.90;;;;;;4227298;28;20044;-85
2022/10/27 01:28:33;;;;;;;9.18;3.25;;;13.60;99.90;;;;;;4215716;28;20083;-86
2022/10/27 01:30:49;;;;;;;10.93;3.92;;;13.60;99.90;;;;;;4231513;28;20056;-86
2022/10/27 01:32:52;;;;;;;8.13;3.90;;;13.60;99.90;;;;;;4215529;28;20052;-86
2022/10/27 01:35:30;;;;;;;11.75;3.65;;;13.60;99.90;;;;;;4232112;28;20044;-86
2022/10/27 01:37:59;;;;;;;9.88;3.30;;;13.60;99.90;;;;;;4222486;28;20044;-86
2022/10/27 01:40:22;;;;;;;12.40;3.58;;;13.70;99.90;;;;;;4214291;28;20509;-86
2022/10/27 01:42:44;;;;;;;9.13;3.30;;;13.70;99.90;;;;;;4215556;28;20129;-86
2022/10/27 01:44:50;;;;;;;9.52;3.55;;;13.70;99.90;;;;;;4215784;28;20048;-86
2022/10/27 01:46:52;;;;;;;11.77;3.35;;;13.70;99.90;;;;;;4213627;28;20048;-85
2022/10/27 01:48:54;;;;;;;13.05;4.32;;;13.70;99.90;;;;;;4217508;28;20036;-85
2022/10/27 01:50:54;;;;;;;12.48;4.50;;;13.70;99.90;;;;;;4213680;28;20044;-85
2022/10/27 01:52:55;;;;;;;8.50;3.08;;;13.70;99.90;;;;;;4231955;28;20043;-85
2022/10/27 01:54:56;;;;;;;11.65;4.35;;;13.70;99.90;;;;;;4224166;28;20073;-85
2022/10/27 01:57:06;;;;;;;12.82;3.60;;;13.80;99.90;;;;;;4213916;28;20044;-86
2022/10/27 01:59:37;;;;;;;14.25;4.15;;;13.70;99.90;;;;;;4230657;28;20071;-85
2022/10/27 02:02:16;;;;;;;13.95;4.45;;;13.80;99.90;;;;;;4231884;28;20075;-85
2022/10/27 02:04:31;;;;;;;8.88;4.22;;;13.80;99.90;;;;;;4230207;28;20085;-85
2022/10/27 02:06:54;;;;;;;12.90;3.58;;;13.90;99.90;;;;;;4230565;28;20121;-85
2022/10/27 02:09:15;;;;;;;8.73;3.80;;;13.80;99.90;;;;;;4231567;28;20050;-85
2022/10/27 02:11:16;;;;;;;9.48;3.60;;;13.90;99.90;;;;;;4232006;28;20043;-85
2022/10/27 02:13:17;;;;;;;9.82;4.30;;;13.90;99.90;;;;;;4232055;28;20032;-86
2022/10/27 02:15:49;;;;;;;10.13;4.40;;;13.90;99.90;;;;;;4230754;28;20056;-85
2022/10/27 02:17:56;;;;;;;11.52;4.30;;;13.80;99.90;;;;;;4231268;28;20046;-85
2022/10/27 02:20:00;;;;;;;11.00;3.85;;;13.80;99.90;;;;;;4219378;28;20058;-85
2022/10/27 02:22:03;;;;;;;14.05;4.07;;;13.80;99.90;;;;;;4217974;28;20410;-85
2022/10/27 02:24:06;;;;;;;6.32;4.05;;;13.80;99.90;;;;;;4231378;28;20122;-85
2022/10/27 02:26:31;;;;;;;7.75;4.70;;;13.80;99.90;;;;;;4231466;28;20123;-85
2022/10/27 02:28:35;;;;;;;8.00;4.38;;;13.80;99.90;;;;;;4231882;28;20039;-85
2022/10/27 02:30:38;;;;;;;14.77;4.25;;;13.80;99.90;;;;;;4231564;28;20463;-85
2022/10/27 02:32:39;;;;;;;10.38;3.90;;;13.80;99.90;;;;;;4231137;28;20040;-86
2022/10/27 02:34:42;;;;;;;15.10;4.55;;;13.80;99.90;;;;;;4232186;28;20500;-85
2022/10/27 02:36:43;;;;;;;10.77;4.10;;;13.80;99.90;;;;;;4231550;28;20128;-85
2022/10/27 02:38:43;;;;;;;10.30;4.05;;;13.80;99.90;;;;;;4232558;28;20427;-84
2022/10/27 02:40:44;;;;;;;12.68;4.18;;;13.80;99.90;;;;;;4231669;28;20051;-85
2022/10/27 02:42:45;;;;;;;9.77;3.83;;;13.80;99.90;;;;;;4231585;28;20054;-84
2022/10/27 02:44:45;;;;;;;10.18;3.45;;;13.80;99.90;;;;;;4230933;28;20039;-85
2022/10/27 02:46:46;;;;;;;11.60;4.00;;;13.90;99.90;;;;;;4230258;28;20039;-84
2022/10/27 02:48:47;;;;;;;7.35;3.50;;;13.90;99.90;;;;;;4229161;28;20497;-84
2022/10/27 02:50:48;;;;;;;14.13;3.70;;;13.90;99.90;;;;;;4230718;28;20079;-86
2022/10/27 02:52:48;;;;;;;8.80;3.88;;;13.90;99.90;;;;;;4229491;28;20043;-85
2022/10/27 02:54:49;;;;;;;14.57;4.15;;;13.90;99.90;;;;;;4229346;28;20049;-85
2022/10/27 02:56:50;;;;;;;10.68;3.63;;;13.90;99.90;;;;;;4230460;28;20130;-85
2022/10/27 02:58:51;;;;;;;14.93;5.00;;;13.90;99.90;;;;;;4231166;28;20669;-85
2022/10/27 03:00:55;;;;;;;11.25;4.38;;;13.90;99.90;;;;;;4230516;28;20036;-85
2022/10/27 03:02:56;;;;;;;11.45;4.60;;;13.90;99.90;;;;;;4234841;28;20040;-85
2022/10/27 03:04:57;;;;;;;10.82;4.18;;;13.90;99.90;;;;;;4235105;28;20058;-85
2022/10/27 03:06:58;;;;;;;12.45;4.10;;;13.80;99.90;;;;;;4234974;28;20036;-84
2022/10/27 03:08:58;;;;;;;9.85;4.53;;;13.80;99.90;;;;;;4234616;28;20047;-84
2022/10/27 03:10:59;;;;;;;15.10;4.78;;;13.80;99.90;;;;;;4234865;28;20071;-84
2022/10/27 03:13:00;;;;;;;11.73;4.63;;;13.80;99.90;;;;;;4234548;28;20047;-85
2022/10/27 03:15:00;;;;;;;12.10;4.32;;;13.80;99.90;;;;;;4234540;28;20056;-85
2022/10/27 03:17:01;;;;;;;15.30;4.38;;;13.80;99.90;;;;;;4234576;28;20039;-85
2022/10/27 03:19:02;;;;;;;9.73;4.00;;;13.80;99.90;;;;;;4224527;28;20036;-85
2022/10/27 03:21:02;;;;;;;13.73;5.10;;;13.70;99.90;;;;;;4217020;28;20042;-85
2022/10/27 03:23:03;;;;;;;12.57;4.57;;;13.70;99.90;;;;;;4231094;28;20047;-85
2022/10/27 03:25:05;;;;;;;8.07;4.40;;;13.70;99.90;;;;;;4234426;28;20520;-85
2022/10/27 03:27:05;;;;;;;9.52;4.40;;;13.70;99.90;;;;;;4233728;28;20047;-85
2022/10/27 03:29:06;;;;;;;12.23;4.10;;;13.70;99.90;;;;;;4233785;28;20085;-85
2022/10/27 03:31:08;;;;;;;10.27;4.60;;;13.70;99.90;;;;;;4232819;28;20058;-85
2022/10/27 03:33:09;;;;;;;9.18;4.30;;;13.70;99.90;;;;;;4233080;28;20047;-85
2022/10/27 03:35:09;;;;;;;10.77;4.18;;;13.70;99.90;;;;;;4234539;28;20036;-85
2022/10/27 03:37:10;;;;;;;11.35;4.80;;;13.70;99.90;;;;;;4226489;28;20055;-85
2022/10/27 03:39:11;;;;;;;13.63;5.05;;;13.60;99.90;;;;;;4217762;28;20089;-85
2022/10/27 03:41:11;;;;;;;11.23;4.68;;;13.60;99.90;;;;;;4217283;28;20052;-85
2022/10/27 03:43:12;;;;;;;10.98;4.28;;;13.60;99.90;;;;;;4215893;28;20044;-85
2022/10/27 03:45:13;;;;;;;12.13;4.15;;;13.60;99.90;;;;;;4217060;28;20058;-84
2022/10/27 03:47:14;;;;;;;10.23;4.35;;;13.60;99.90;;;;;;4217555;28;20036;-84
2022/10/27 03:49:14;;;;;;;12.65;4.55;;;13.60;99.90;;;;;;4223263;28;20039;-85
2022/10/27 03:51:16;;;;;;;12.10;5.57;;;13.60;99.90;;;;;;4234183;28;20055;-85
2022/10/27 03:53:18;;;;;;;13.35;5.10;;;13.60;99.90;;;;;;4234354;28;20056;-85
2022/10/27 03:55:18;;;;;;;14.88;5.25;;;13.60;99.90;;;;;;4225970;28;20054;-85
2022/10/27 03:57:19;;;;;;;19.30;4.93;;;13.60;99.90;;;;;;4216562;28;20036;-85
2022/10/27 03:59:20;;;;;;;11.13;4.85;;;13.60;99.90;;;;;;4232018;28;20151;-85
2022/10/27 04:01:21;;;;;;;9.20;4.50;;;13.60;99.90;;;;;;4233487;28;20127;-85
2022/10/27 04:03:22;;;;;;;10.20;4.78;;;13.60;99.90;;;;;;4232941;28;20118;-85
2022/10/27 04:05:23;;;;;;;12.18;5.30;;;13.60;99.90;;;;;;4232985;28;20065;-85
2022/10/27 04:07:24;;;;;;;10.35;5.28;;;13.60;99.90;;;;;;4232045;28;20152;-85
2022/10/27 04:09:25;;;;;;;13.55;3.75;;;13.60;99.90;;;;;;4232430;28;20051;-84
2022/10/27 04:11:26;;;;;;;11.75;4.50;;;13.50;99.90;;;;;;4233043;28;20513;-84
2022/10/27 04:13:26;;;;;;;14.10;4.78;;;13.60;99.90;;;;;;4230786;28;20043;-85
2022/10/27 04:15:28;;;;;;;14.25;4.90;;;13.60;99.90;;;;;;4232454;28;20051;-85
2022/10/27 04:17:29;;;;;;;11.48;4.38;;;13.60;99.90;;;;;;4232904;28;20040;-85
2022/10/27 04:19:29;;;;;;;15.45;5.65;;;13.50;99.90;;;;;;4223576;27;20094;-85
2022/10/27 04:21:30;;;;;;;12.50;5.10;;;13.60;99.90;;;;;;4215542;28;20040;-85
2022/10/27 04:23:31;;;;;;;9.90;4.18;;;13.60;99.90;;;;;;4232633;28;20369;-85
2022/10/27 04:25:32;;;;;;;9.85;4.53;;;13.50;99.90;;;;;;4232813;28;20043;-85
2022/10/27 04:27:33;;;;;;;10.52;4.35;;;13.50;99.90;;;;;;4232120;28;20111;-85
2022/10/27 04:29:34;;;;;;;21.95;5.93;;;13.50;99.90;;;;;;4215458;28;20040;-85
2022/10/27 04:31:34;;;;;;;12.85;4.70;;;13.50;99.90;;;;;;4215888;28;20083;-85
2022/10/27 04:33:35;;;;;;;15.27;5.53;;;13.50;99.90;;;;;;4215505;28;20056;-85
2022/10/27 04:35:37;;;;;;;9.23;4.85;;;13.50;99.90;;;;;;4214293;28;20048;-85
2022/10/27 04:37:37;;;;;;;13.90;5.00;;;13.50;99.90;;;;;;4215620;28;20047;-85
2022/10/27 04:39:39;;;;;;;16.13;5.20;;;13.40;99.90;;;;;;4215749;28;20075;-85
2022/10/27 04:41:41;;;;;;;11.48;5.53;;;13.40;99.90;;;;;;4214823;28;20119;-86
2022/10/27 04:43:41;;;;;;;10.60;4.85;;;13.50;99.90;;;;;;4216165;28;20040;-86
2022/10/27 04:45:42;;;;;;;10.30;4.82;;;13.40;99.90;;;;;;4216070;28;20102;-86
2022/10/27 04:47:43;;;;;;;11.55;5.20;;;13.40;99.90;;;;;;4217392;28;20478;-86
2022/10/27 04:49:44;;;;;;;15.75;5.47;;;13.40;99.90;;;;;;4216174;28;20059;-86
2022/10/27 04:51:45;;;;;;;11.00;5.07;;;13.40;99.90;;;;;;4219802;28;20047;-86
2022/10/27 04:53:45;;;;;;;15.93;5.60;;;13.40;99.90;;;;;;4234122;28;20047;-86
2022/10/27 04:55:49;;;;;;;12.45;5.13;;;13.40;99.90;;;;;;4233753;28;20124;-85
2022/10/27 04:57:50;;;;;;;15.68;5.60;;;13.30;99.90;;;;;;4232320;28;20048;-86
2022/10/27 04:59:51;;;;;;;16.10;5.85;;;13.30;99.90;;;;;;4234648;28;20096;-86
2022/10/27 05:01:52;;;;;;;12.48;5.90;;;13.30;99.90;;;;;;4234214;28;20055;-85
2022/10/27 05:03:52;;;;;;;13.40;5.80;;;13.30;99.90;;;;;;4228541;28;20044;-86
2022/10/27 05:05:54;;;;;;;14.23;5.75;;;13.30;99.90;;;;;;4214217;28;20044;-85
2022/10/27 05:08:02;;;;;;;11.95;6.20;;;13.30;99.90;;;;;;4215797;28;20058;-85
2022/10/27 05:10:03;;;;;;;13.30;6.30;;;13.30;99.90;;;;;;4218815;28;20119;-85
2022/10/27 05:12:04;;;;;;;17.40;6.05;;;13.30;99.90;;;;;;4215349;28;20290;-85
2022/10/27 05:14:05;;;;;;;13.60;5.70;;;13.20;99.90;;;;;;4215563;28;20051;-86
2022/10/27 05:16:06;;;;;;;16.55;6.63;;;13.20;99.90;;;;;;4215228;28;20044;-85
2022/10/27 05:18:10;;;;;;;17.48;6.78;;;13.20;99.90;;;;;;4215137;28;20051;-85
2022/10/27 05:20:11;;;;;;;12.65;7.15;;;13.20;99.90;;;;;;4215377;28;20048;-85
2022/10/27 05:22:12;;;;;;;12.00;6.70;;;13.20;99.90;;;;;;4218730;28;20039;-85
2022/10/27 05:24:13;;;;;;;19.52;9.05;;;13.10;99.90;;;;;;4229764;28;20136;-85
2022/10/27 05:26:14;;;;;;;12.88;6.53;;;13.10;99.90;;;;;;4231020;28;20564;-85
2022/10/27 05:28:15;;;;;;;19.38;7.10;;;13.10;99.90;;;;;;4226036;28;20048;-86
2022/10/27 05:30:16;;;;;;;14.57;6.53;;;13.10;99.90;;;;;;4214100;28;20083;-86
2022/10/27 05:32:17;;;;;;;13.85;5.78;;;13.10;99.90;;;;;;4231441;28;20509;-86
2022/10/27 05:34:18;;;;;;;14.38;6.30;;;13.00;99.90;;;;;;4230841;28;20047;-85
2022/10/27 05:36:18;;;;;;;13.65;6.28;;;13.00;99.90;;;;;;4232577;28;20499;-85
2022/10/27 05:38:19;;;;;;;14.93;6.07;;;13.00;99.90;;;;;;4232112;28;20096;-85
2022/10/27 05:40:20;;;;;;;17.10;7.03;;;13.00;99.90;;;;;;4214206;28;20079;-85
2022/10/27 05:42:21;;;;;;;15.85;7.28;;;13.00;99.90;;;;;;4215272;28;20067;-85
2022/10/27 05:44:22;;;;;;;16.13;6.55;;;13.00;99.90;;;;;;4231841;28;20126;-86
2022/10/27 05:46:22;;;;;;;11.15;6.53;;;13.00;99.90;;;;;;4231181;28;20953;-85
2022/10/27 05:48:24;;;;;;;13.80;6.18;;;13.00;99.90;;;;;;4209650;28;20871;-86
2022/10/27 05:50:26;;;;;;;10.77;5.88;;;13.00;99.90;;;;;;4221133;28;20075;-86
2022/10/27 05:52:27;;;;;;;15.60;5.68;;;13.00;99.90;;;;;;4233189;28;20047;-85
2022/10/27 05:54:28;;;;;;;12.70;6.68;;;13.00;99.90;;;;;;4232654;28;20047;-86
2022/10/27 05:56:29;;;;;;;9.90;5.85;;;13.00;99.90;;;;;;4220745;28;20504;-85
2022/10/27 05:58:29;;;;;;;14.48;6.57;;;13.00;99.90;;;;;;4231133;28;20044;-85
2022/10/27 06:00:34;;;;;;;14.70;5.93;;;13.00;99.90;;;;;;4232748;28;20505;-85
2022/10/27 06:02:34;;;;;;;14.73;6.68;;;13.00;99.90;;;;;;4214193;28;20090;-85
2022/10/27 06:04:35;;;;;;;15.65;6.00;;;13.00;99.90;;;;;;4231215;28;20054;-87
2022/10/27 06:06:36;;;;;;;13.50;6.13;;;13.00;99.90;;;;;;4223848;28;20538;-86
2022/10/27 06:08:37;;;;;;;11.38;5.75;;;13.00;99.90;;;;;;4224810;28;20044;-86
2022/10/27 06:10:37;;;;;;;16.00;7.13;;;13.00;99.90;;;;;;4231897;28;20477;-86
2022/10/27 06:12:38;;;;;;;15.05;7.22;;;13.10;99.90;;;;;;4221910;28;20101;-86
2022/10/27 06:14:39;;;;;;;16.25;6.90;;;13.10;99.90;;;;;;4214663;28;20048;-87
2022/10/27 06:16:40;;;;;;;16.30;6.95;;;13.10;99.90;;;;;;4224923;28;20052;-86
2022/10/27 06:18:40;;;;;;;14.55;6.47;;;13.10;99.90;;;;;;4219168;28;20044;-86
2022/10/27 06:20:42;;;;;;;12.85;6.45;;;13.10;99.90;;;;;;4231484;28;20420;-86
2022/10/27 06:22:45;;;;;;;15.57;7.80;;;13.10;99.90;;;;;;4222887;28;20034;-86
2022/10/27 06:24:46;;;;;;;14.15;6.47;;;13.10;99.90;;;;;;4217187;28;20123;-86
2022/10/27 06:26:48;;;;;;;13.98;7.18;;;13.10;99.90;;;;;;4233665;28;20489;-86
2022/10/27 06:28:49;;;;;;;17.70;7.80;;;13.10;99.90;;;;;;4219710;28;20098;-87
2022/10/27 06:30:50;;;;;;;13.43;6.90;;;13.10;99.90;;;;;;4229708;28;20035;-86
2022/10/27 06:32:52;;;;;;;14.57;7.18;;;13.00;99.90;;;;;;4228226;28;20077;-85
2022/10/27 06:34:52;;;;;;;17.88;7.82;;;13.10;99.90;;;;;;4235570;28;20044;-86
2022/10/27 06:36:53;;;;;;;18.33;7.25;;;13.00;99.90;;;;;;4235426;28;20496;-86
2022/10/27 06:38:54;;;;;;;16.10;7.03;;;13.10;99.90;;;;;;4218938;28;20043;-86
2022/10/27 06:40:55;;;;;;;15.88;6.97;;;13.10;99.90;;;;;;4234390;28;20089;-85
2022/10/27 06:42:56;;;;;;;13.00;6.72;;;13.00;99.90;;;;;;4235136;28;20039;-86
2022/10/27 06:45:00;;;;;;;15.02;8.25;;;13.10;99.90;;;;;;4235716;28;20062;-86
2022/10/27 06:47:01;;;;;;;15.73;6.88;;;13.10;99.90;;;;;;4236636;28;20043;-85
2022/10/27 06:49:02;;;;;;;13.88;6.80;;;12.20;99.90;;;;;;4235991;28;20532;-87
2022/10/27 06:51:03;;;;;;;15.63;6.90;;;13.10;99.90;;;;;;4230193;28;20036;-86
2022/10/27 06:53:03;;;;;;;14.82;7.35;;;13.20;99.90;;;;;;4232967;28;20036;-85
2022/10/27 06:55:06;;;;;;;19.25;7.32;;;13.10;99.90;;;;;;4230497;28;20056;-86
2022/10/27 06:57:07;;;;;;;13.18;7.18;;;13.20;99.90;;;;;;4215203;28;20749;-87
2022/10/27 06:59:08;;;;;;;14.15;6.30;;;13.20;99.90;;;;;;4231616;28;20055;-87
2022/10/27 07:01:09;;;;;;;15.27;7.38;;;12.90;99.90;;;;;;4231514;28;20063;-86
2022/10/27 07:03:10;;;;;;;13.95;6.65;;;12.20;99.90;;;;;;4219938;28;20051;-87
2022/10/27 07:05:11;;;;;;;10.98;6.38;;;13.30;99.90;;;;;;4228745;28;20131;-87
2022/10/27 07:07:11;;;;;;;17.33;6.88;;;13.30;99.90;;;;;;4233013;28;20516;-87
2022/10/27 07:09:16;;;;;;;18.15;6.50;;;13.40;99.90;;;;;;4230031;28;20016;-89
2022/10/27 07:11:17;;;;;;;17.63;7.13;;;13.50;99.90;;;;;;4213165;28;20093;-88
2022/10/27 07:13:29;;;;;;;14.63;6.72;;;13.50;99.90;;;;;;4228555;28;20075;-88
2022/10/27 07:15:32;;;;;;;11.60;6.10;;;13.60;99.90;;;;;;4225672;28;20059;-87
2022/10/27 07:17:35;;;;;;;16.50;6.45;;;13.50;99.90;;;;;;4240021;28;20051;-87
2022/10/27 07:19:57;;;;;;;12.18;6.10;;;13.60;99.90;;;;;;4239301;28;20383;-88
2022/10/27 07:22:32;;;;;;;12.57;5.55;;;13.60;99.90;;;;;;4222045;28;20039;-87
2022/10/27 07:24:38;;;;;;;9.50;5.50;;;13.50;99.90;;;;;;4202193;28;20060;-88
2022/10/27 07:26:41;;;;;;;16.30;6.68;;;13.70;99.90;;;;;;4235368;28;20096;-88
2022/10/27 07:28:42;;;;;;;17.33;6.93;;;13.60;99.90;;;;;;4217945;28;20055;-87
2022/10/27 07:30:43;;;;;;;13.45;6.60;;;13.70;99.90;;;;;;4231497;28;20040;-88
2022/10/27 07:32:44;;;;;;;11.95;5.95;;;13.70;99.90;;;;;;4217514;28;20109;-88
2022/10/27 07:34:45;;;;;;;10.73;4.82;;;13.70;99.90;;;;;;4207913;28;20043;-88
2022/10/27 07:36:46;;;;;;;10.85;5.78;;;13.70;99.90;;;;;;4216814;28;20109;-88
2022/10/27 07:38:47;;;;;;;14.70;5.88;;;13.80;99.90;;;;;;4233379;28;20136;-89
2022/10/27 07:40:49;;;;;;;9.25;4.90;;;13.80;99.90;;;;;;4234386;28;20112;-88
2022/10/27 07:42:52;;;;;;;11.05;5.68;;;13.80;99.90;;;;;;4234246;28;20470;-89
2022/10/27 07:44:53;;;;;;;11.45;5.90;;;13.90;99.90;;;;;;4226235;28;20077;-88
2022/10/27 07:46:54;;;;;;;15.63;4.80;;;14.00;99.90;;;;;;4233408;28;20521;-88
2022/10/27 07:48:55;;;;;;;8.68;5.25;;;14.00;99.90;;;;;;4232692;28;20524;-87
2022/10/27 07:50:56;;;;;;;10.30;4.55;;;14.00;99.90;;;;;;4233299;28;20054;-88
2022/10/27 07:52:57;;;;;;;11.05;5.57;;;14.10;99.90;;;;;;4231302;28;20114;-88
2022/10/27 07:54:58;;;;;;;11.48;5.32;;;14.10;99.90;;;;;;4220726;28;20040;-87
2022/10/27 07:57:00;;;;;;;11.05;5.07;;;14.10;99.90;;;;;;4233329;28;20048;-86
2022/10/27 07:59:00;;;;;;;12.45;5.30;;;14.20;99.90;;;;;;4226764;28;20393;-86
2022/10/27 08:01:04;;;;;;;8.52;4.85;;;14.20;99.90;;;;;;4229806;28;20079;-87
2022/10/27 08:03:10;;;;;;;8.45;4.60;;;14.30;99.90;;;;;;4222087;28;20048;-87
2022/10/27 08:05:11;;;;;;;12.82;4.47;;;14.40;99.90;;;;;;4229581;28;20044;-89
2022/10/27 08:07:15;;;;;;;10.45;4.53;;;14.40;99.90;;;;;;4228757;28;20054;-87
2022/10/27 08:09:15;;;;;;;8.40;4.57;;;14.50;99.90;;;;;;4231478;28;20044;-87
2022/10/27 08:11:17;;;;;;;13.30;4.43;;;14.60;99.90;;;;;;4234391;28;20058;-86
2022/10/27 08:13:18;;;;;;;8.70;4.40;;;14.60;99.90;;;;;;4233156;28;20051;-89
2022/10/27 08:15:19;;;;;;;13.27;4.45;;;14.70;99.90;;;;;;4234793;28;20094;-87
2022/10/27 08:17:21;;;;;;;6.53;3.63;;;14.70;99.90;;;;;;4233645;28;20540;-86
2022/10/27 08:19:21;;;;;;;9.57;3.95;;;14.80;99.90;;;;;;4231561;28;20104;-87
2022/10/27 08:21:23;;;;;;;8.43;4.55;;;14.90;99.90;;;;;;4234491;28;20039;-87
2022/10/27 08:23:24;;;;;;;7.93;3.78;;;15.00;99.90;;;;;;4236471;27;20096;-87
2022/10/27 08:25:26;;;;;;;9.50;3.78;;;15.40;99.90;;;;;;4236264;28;20532;-87
2022/10/27 08:27:28;;;;;;;6.88;4.03;;;;;;;;;;4232724;28;20044;-87
2022/10/27 08:29:29;;;;;;;6.32;3.85;;;15.90;99.90;;;;;;4232806;28;20051;-88
2022/10/27 08:31:30;;;;;;;7.35;3.60;;;16.90;99.90;;;;;;4215043;28;20104;-88
2022/10/27 08:33:30;;;;;;;7.60;3.38;;;17.10;99.90;;;;;;4232213;28;20116;-87
2022/10/27 08:35:32;;;;;;;10.77;3.70;;;16.90;99.90;;;;;;4232313;28;20058;-88
2022/10/27 08:37:33;;;;;;;8.57;3.55;;;16.80;99.90;;;;;;4230388;28;20044;-88
2022/10/27 08:39:34;;;;;;;7.38;3.55;;;16.60;99.90;;;;;;4233297;28;20048;-87
2022/10/27 08:41:46;;;;;;;8.43;3.35;;;16.40;99.90;;;;;;4232776;28;20048;-88
2022/10/27 08:43:49;;;;;;;6.45;3.75;;;16.40;99.90;;;;;;4213662;28;20048;-87
2022/10/27 08:45:55;;;;;;;7.25;3.70;;;16.50;99.90;;;;;;4231936;27;20378;-86
2022/10/27 08:47:58;;;;;;;7.05;3.60;;;16.60;99.90;;;;;;4214135;28;20109;-87
2022/10/27 08:50:03;;;;;;;6.18;3.25;;;;;;;;;;4219201;28;20472;-87
2022/10/27 08:52:04;;;;;;;11.95;3.53;;;;;;;;;;4214419;28;20079;-87
2022/10/27 08:54:06;;;;;;;6.32;3.55;;;16.70;99.90;;;;;;4215093;28;20055;-87
2022/10/27 08:56:11;;;;;;;6.95;3.75;;;17.60;99.90;;;;;;4226443;28;20055;-87
2022/10/27 08:58:26;;;;;;;8.20;3.40;;;17.90;99.90;;;;;;4232073;28;20043;-87
2022/10/27 09:00:30;;;;;;;5.03;2.92;;;18.30;99.90;;;;;;4231845;28;20051;-88
2022/10/27 09:02:39;;;;;;;8.35;2.95;;;18.90;99.90;;;;;;4232856;28;20047;-86
2022/10/27 09:04:52;;;;;;;6.18;3.00;;;19.40;99.90;;;;;;4232440;28;20043;-87
2022/10/27 09:07:23;;;;;;;7.05;2.83;;;20.10;99.90;;;;;;4232839;28;20046;-88
2022/10/27 09:09:44;;;;;;;5.13;2.75;;;20.70;99.90;;;;;;4231269;28;20443;-88
2022/10/27 09:12:03;;;;;;;7.10;2.80;;;21.20;99.90;;;;;;4230219;28;20468;-89
2022/10/27 09:14:18;;;;;;;6.25;2.88;;;21.30;99.90;;;;;;4227598;28;20047;-87
2022/10/27 09:16:34;;;;;;;7.13;2.92;;;20.90;99.90;;;;;;4230520;28;20059;-87
2022/10/27 09:18:43;;;;;;;7.80;2.95;;;21.60;99.90;;;;;;4246582;27;20047;-87
2022/10/27 09:20:52;;;;;;;6.90;3.25;;;21.70;99.90;;;;;;4231584;28;20110;-87
2022/10/27 09:22:55;;;;;;;8.15;3.35;;;21.40;99.90;;;;;;4229131;28;20035;-87
2022/10/27 09:25:05;;;;;;;6.57;2.88;;;21.50;99.90;;;;;;4231377;28;20159;-86
2022/10/27 09:27:08;;;;;;;6.35;2.50;;;21.30;99.90;;;;;;4215586;28;20474;-88
2022/10/27 09:29:21;;;;;;;9.25;2.83;;;21.40;99.90;;;;;;4217071;28;20050;-88
2022/10/27 09:31:44;;;;;;;9.07;2.97;;;21.60;99.90;;;;;;4223141;28;20044;-88
2022/10/27 09:33:53;;;;;;;9.35;3.13;;;21.40;99.90;;;;;;4230480;28;20047;-87
2022/10/27 09:35:56;;;;;;;8.02;2.75;;;21.10;99.90;;;;;;4232369;28;20075;-86
2022/10/27 09:37:58;;;;;;;7.72;2.92;;;20.60;99.90;;;;;;4230260;28;20118;-86
2022/10/27 09:40:00;;;;;;;11.70;3.05;;;20.00;99.90;;;;;;4229605;28;20047;-86
2022/10/27 09:42:00;;;;;;;9.43;3.08;;;19.70;99.90;;;;;;4215167;28;20052;-86
2022/10/27 09:44:03;;;;;;;5.50;2.88;;;19.40;99.90;;;;;;4226551;28;20127;-86
2022/10/27 09:46:10;;;;;;;7.18;2.97;;;19.20;99.90;;;;;;4231656;28;20047;-87
2022/10/27 09:48:18;;;;;;;9.02;4.03;;;19.10;99.90;;;;;;4231424;28;20123;-86
2022/10/27 09:50:27;;;;;;;7.13;2.60;;;18.90;99.90;;;;;;4230230;28;20529;-86
2022/10/27 09:52:33;;;;;;;6.32;3.03;;;18.90;99.90;;;;;;4223332;28;20043;-86
2022/10/27 09:54:38;;;;;;;7.35;2.65;;;18.70;99.90;;;;;;4214329;28;20517;-86
2022/10/27 09:56:38;;;;;;;5.65;2.70;;;18.60;99.90;;;;;;4215149;28;20084;-87
2022/10/27 09:59:07;;;;;;;6.68;2.67;;;18.60;99.90;;;;;;4213790;28;20505;-87
2022/10/27 10:01:09;;;;;;;6.85;3.05;;;18.60;99.90;;;;;;4213065;28;20091;-87
2022/10/27 10:03:20;;;;;;;6.57;3.40;;;18.50;99.90;;;;;;4214503;28;20079;-88
2022/10/27 10:05:25;;;;;;;5.38;2.60;;;18.50;99.90;;;;;;4215047;28;20040;-86
2022/10/27 10:07:39;;;;;;;6.40;3.00;;;18.50;99.90;;;;;;4213347;28;20889;-87
2022/10/27 10:09:39;;;;;;;8.00;2.60;;;18.40;99.90;;;;;;4214111;28;20485;-87
2022/10/27 10:11:40;;;;;;;6.45;2.70;;;18.30;99.90;;;;;;4217024;28;20048;-86
2022/10/27 10:13:58;;;;;;;6.22;2.65;;;18.30;99.90;;;;;;4224554;28;20404;-87
2022/10/27 10:16:15;;;;;;;6.18;2.50;;;18.20;99.90;;;;;;4225086;28;20052;-86
2022/10/27 10:18:25;;;;;;;11.00;3.38;;;17.70;99.90;;;;;;4231506;28;20054;-87
2022/10/27 10:20:31;;;;;;;4.53;2.20;;;18.10;99.90;;;;;;4230992;28;20032;-87
2022/10/27 10:22:34;;;;;;;6.60;2.63;;;18.20;99.90;;;;;;4230956;28;20494;-86
2022/10/27 10:24:35;;;;;;;12.38;2.85;;;18.20;99.90;;;;;;4231144;28;20044;-86
2022/10/27 10:26:36;;;;;;;6.68;2.67;;;18.20;99.90;;;;;;4230844;28;20054;-87
2022/10/27 10:28:43;;;;;;;7.65;3.15;;;18.30;99.90;;;;;;4232870;28;20443;-87
2022/10/27 10:30:50;;;;;;;7.88;2.95;;;18.40;99.90;;;;;;4232987;28;20413;-87
2022/10/27 10:32:55;;;;;;;4.15;1.90;;;18.60;99.90;;;;;;4225982;28;20035;-87
2022/10/27 10:35:00;;;;;;;9.30;2.60;;;18.60;99.90;;;;;;4232056;28;20046;-87
2022/10/27 10:37:27;;;;;;;8.27;3.22;;;18.20;99.90;;;;;;4230710;28;20148;-88
2022/10/27 10:39:31;;;;;;;4.25;2.20;;;18.60;99.90;;;;;;4213936;28;20127;-87
2022/10/27 10:41:32;;;;;;;10.10;2.63;;;18.60;99.90;;;;;;4232248;28;20051;-87